createdAt,value
2018-06-11T00:00:08.153Z,100471.55
2018-06-11T00:02:36.149Z,100472.84
2018-06-11T00:05:04.185Z,100473.84
2018-06-11T00:07:32.265Z,100473.53
2018-06-11T00:10:00.274Z,100473.03
2018-06-11T00:12:28.326Z,100478.08
2018-06-11T00:14:56.353Z,100465.59
2018-06-11T00:17:24.357Z,100472.59
2018-06-11T00:19:52.376Z,100477.59
2018-06-11T00:22:20.367Z,100473.96
2018-06-11T00:24:48.394Z,100475.82
2018-06-11T00:27:16.409Z,100465.94
2018-06-11T00:29:45.064Z,100471.61
2018-06-11T00:32:13.064Z,100473.03
2018-06-11T00:34:41.056Z,100476.81
2018-06-11T00:37:09.068Z,100474.36
2018-06-11T00:39:37.465Z,100478.92
2018-06-11T00:42:05.493Z,100478.08
2018-06-11T00:44:33.529Z,100472.91
2018-06-11T00:47:01.585Z,100463.27
2018-06-11T00:49:29.641Z,100464.70
2018-06-11T00:51:57.679Z,100468.48
2018-06-11T00:54:25.666Z,100461.75
2018-06-11T00:56:53.661Z,100460.32
2018-06-11T00:59:21.728Z,100448.95
2018-06-11T01:01:49.735Z,100439.74
2018-06-11T01:04:17.737Z,100433.95
2018-06-11T01:06:45.735Z,100437.42
2018-06-11T01:09:13.715Z,100448.66
2018-06-11T01:11:41.708Z,100452.44
2018-06-11T01:14:09.839Z,100456.19
2018-06-11T01:16:37.872Z,100462.61
2018-06-11T01:19:05.981Z,100458.51
2018-06-11T01:21:33.996Z,100469.48
2018-06-11T01:24:02.053Z,100478.48
2018-06-11T01:26:30.046Z,100494.08
2018-06-11T01:28:58.258Z,100485.84
2018-06-11T01:31:26.283Z,100476.77
2018-06-11T01:33:54.281Z,100478.28
2018-06-11T01:36:22.293Z,100483.55
2018-06-11T01:38:50.295Z,100489.11
2018-06-11T01:41:18.332Z,100484.09
2018-06-11T01:43:46.368Z,100491.02
2018-06-11T01:46:14.424Z,100493.53
2018-06-11T01:48:42.424Z,100497.61
2018-06-11T01:51:10.438Z,100501.91
2018-06-11T01:53:38.436Z,100504.72
2018-06-11T01:56:06.892Z,100497.18
2018-06-11T01:58:34.955Z,100496.64
2018-06-11T02:01:02.964Z,100485.72
2018-06-11T02:03:30.945Z,100486.17
2018-06-11T02:05:58.942Z,100493.37
2018-06-11T02:08:26.948Z,100489.93
2018-06-11T02:10:54.980Z,100484.76
2018-06-11T02:13:22.983Z,100484.16
2018-06-11T02:15:50.989Z,100470.97
2018-06-11T02:18:19.096Z,100471.80
2018-06-11T02:20:47.101Z,100469.91
2018-06-11T02:23:15.120Z,100479.34
2018-06-11T02:25:43.177Z,100472.62
2018-06-11T02:28:11.206Z,100466.41
2018-06-11T02:30:39.193Z,100464.62
2018-06-11T02:33:07.321Z,100464.62
2018-06-11T02:35:35.413Z,100476.22
2018-06-11T02:38:03.433Z,100479.86
2018-06-11T02:40:31.426Z,100481.63
2018-06-11T02:42:59.440Z,100483.16
2018-06-11T02:45:27.482Z,100481.72
2018-06-11T02:47:55.537Z,100481.06
2018-06-11T02:50:23.541Z,100500.95
2018-06-11T02:52:51.569Z,100501.07
2018-06-11T02:55:19.653Z,100499.86
2018-06-11T02:57:47.689Z,100500.99
2018-06-11T03:00:15.706Z,100501.11
2018-06-11T03:02:43.701Z,100502.55
2018-06-11T03:05:11.714Z,100502.44
2018-06-11T03:07:39.809Z,100508.22
2018-06-11T03:10:07.816Z,100513.77
2018-06-11T03:12:35.947Z,100519.36
2018-06-11T03:15:03.996Z,100510.77
2018-06-11T03:17:32.137Z,100512.09
2018-06-11T03:20:00.174Z,100507.64
2018-06-11T03:22:28.269Z,100510.12
2018-06-11T03:24:56.292Z,100514.61
2018-06-11T03:27:24.317Z,100512.17
2018-06-11T03:29:52.328Z,100509.36
2018-06-11T03:32:20.341Z,100491.91
2018-06-11T03:34:48.357Z,100491.02
2018-06-11T03:37:16.496Z,100495.49
2018-06-11T03:39:44.504Z,100507.41
2018-06-11T03:42:12.653Z,100500.48
2018-06-11T03:44:40.668Z,100504.42
2018-06-11T03:47:08.684Z,100507.28
2018-06-11T03:49:36.696Z,100502.69
2018-06-11T03:52:04.724Z,100498.47
2018-06-11T03:54:32.788Z,100499.46
2018-06-11T03:57:00.887Z,100493.02
2018-06-11T03:59:28.899Z,100494.41
2018-06-11T04:01:56.888Z,100495.73
2018-06-11T04:04:24.949Z,100501.34
2018-06-11T04:06:52.967Z,100483.70
2018-06-11T04:09:21.128Z,100486.19
2018-06-11T04:11:49.145Z,100483.58
2018-06-11T04:14:17.193Z,100483.96
2018-06-11T04:16:45.181Z,100480.75
2018-06-11T04:19:13.180Z,100494.73
2018-06-11T04:21:41.217Z,100498.98
2018-06-11T04:24:09.244Z,100500.44
2018-06-11T04:26:37.265Z,100497.94
2018-06-11T04:29:05.369Z,100499.14
2018-06-11T04:31:33.409Z,100498.64
2018-06-11T04:34:01.442Z,100493.03
2018-06-11T04:36:29.512Z,100498.28
2018-06-11T04:38:57.543Z,100500.54
2018-06-11T04:41:25.559Z,100493.56
2018-06-11T04:43:53.647Z,100497.99
2018-06-11T04:46:21.638Z,100499.16
2018-06-11T04:48:49.669Z,100506.42
2018-06-11T04:51:17.664Z,100508.01
2018-06-11T04:53:45.673Z,100500.77
2018-06-11T04:56:13.680Z,100501.98
2018-06-11T04:58:41.704Z,100509.52
2018-06-11T05:01:09.708Z,100508.03
2018-06-11T05:03:37.717Z,100507.59
2018-06-11T05:06:06.000Z,100517.83
2018-06-11T05:08:34.020Z,100517.83
2018-06-11T05:11:02.075Z,100517.90
2018-06-11T05:13:30.109Z,100521.38
2018-06-11T05:15:58.116Z,100522.67
2018-06-11T05:18:26.136Z,100525.16
2018-06-11T05:20:54.145Z,100530.06
2018-06-11T05:23:22.220Z,100525.32
2018-06-11T05:25:50.259Z,100525.32
2018-06-11T05:28:18.257Z,100536.34
2018-06-11T05:30:46.346Z,100532.67
2018-06-11T05:33:14.329Z,100541.16
2018-06-11T05:35:42.363Z,100540.45
2018-06-11T05:38:10.353Z,100538.87
2018-06-11T05:40:38.395Z,100550.56
2018-06-11T05:43:06.382Z,100546.30
2018-06-11T05:45:34.392Z,100554.97
2018-06-11T05:48:02.456Z,100553.19
2018-06-11T05:50:30.456Z,100550.65
2018-06-11T05:52:58.457Z,100553.23
2018-06-11T05:55:26.498Z,100550.37
2018-06-11T05:57:55.106Z,100555.79
2018-06-11T06:00:23.120Z,100554.20
2018-06-11T06:02:51.185Z,100562.39
2018-06-11T06:05:19.208Z,100561.93
2018-06-11T06:07:47.204Z,100563.09
2018-06-11T06:10:15.217Z,100566.44
2018-06-11T06:12:43.229Z,100567.10
2018-06-11T06:15:11.261Z,100562.08
2018-06-11T06:17:39.264Z,100559.92
2018-06-11T06:20:07.276Z,100563.40
2018-06-11T06:22:35.273Z,100559.98
2018-06-11T06:25:03.325Z,100558.16
2018-06-11T06:27:31.334Z,100566.17
2018-06-11T06:30:01.056Z,100566.80
2018-06-11T06:32:29.067Z,100565.66
2018-06-11T06:34:57.085Z,100576.19
2018-06-11T06:37:25.199Z,100569.08
2018-06-11T06:39:53.213Z,100573.98
2018-06-11T06:42:21.220Z,100567.65
2018-06-11T06:44:49.221Z,100561.83
2018-06-11T06:47:17.249Z,100562.67
2018-06-11T06:49:45.309Z,100563.88
2018-06-11T06:52:13.321Z,100566.35
2018-06-11T06:54:41.377Z,100572.92
2018-06-11T06:57:09.424Z,100563.34
2018-06-11T06:59:37.427Z,100565.91
2018-06-11T07:02:05.632Z,100560.22
2018-06-11T07:04:33.744Z,100567.54
2018-06-11T07:07:01.733Z,100566.82
2018-06-11T07:09:29.770Z,100565.01
2018-06-11T07:11:57.941Z,100562.95
2018-06-11T07:14:25.976Z,100561.34
2018-06-11T07:16:54.013Z,100560.03
2018-06-11T07:19:22.017Z,100556.04
2018-06-11T07:21:50.056Z,100557.91
2018-06-11T07:24:18.093Z,100566.55
2018-06-11T07:26:46.166Z,100564.93
2018-06-11T07:29:14.153Z,100571.16
2018-06-11T07:31:42.233Z,100564.59
2018-06-11T07:34:10.240Z,100567.72
2018-06-11T07:36:38.293Z,100565.33
2018-06-11T07:39:07.712Z,100565.23
2018-06-11T07:41:36.151Z,100575.53
2018-06-11T07:44:04.360Z,100572.64
2018-06-11T07:46:32.357Z,100577.02
2018-06-11T07:49:00.399Z,100574.30
2018-06-11T07:51:28.416Z,100572.60
2018-06-11T07:53:56.463Z,100568.18
2018-06-11T07:56:24.508Z,100569.84
2018-06-11T07:58:52.574Z,100566.42
2018-06-11T08:01:20.645Z,100567.18
2018-06-11T08:03:49.544Z,100571.12
2018-06-11T08:06:18.489Z,100574.01
2018-06-11T08:08:46.492Z,100571.98
2018-06-11T08:11:14.521Z,100576.81
2018-06-11T08:13:42.593Z,100568.19
2018-06-11T08:16:10.669Z,100574.67
2018-06-11T08:18:38.691Z,100563.61
2018-06-11T08:21:06.716Z,100569.20
2018-06-11T08:23:34.789Z,100565.48
2018-06-11T08:26:02.806Z,100567.73
2018-06-11T08:28:31.281Z,100563.70
2018-06-11T08:30:59.301Z,100562.75
2018-06-11T08:33:27.321Z,100566.84
2018-06-11T08:35:55.348Z,100569.30
2018-06-11T08:38:23.373Z,100577.25
2018-06-11T08:40:51.398Z,100568.63
2018-06-11T08:43:19.494Z,100563.65
2018-06-11T08:45:47.505Z,100562.41
2018-06-11T08:48:15.577Z,100566.24
2018-06-11T08:50:43.652Z,100567.23
2018-06-11T08:53:11.714Z,100581.08
2018-06-11T08:55:39.742Z,100575.33
2018-06-11T08:58:07.793Z,100579.36
2018-06-11T09:00:35.847Z,100579.87
2018-06-11T09:03:03.891Z,100575.05
2018-06-11T09:05:31.881Z,100582.17
2018-06-11T09:08:00.165Z,100581.01
2018-06-11T09:10:28.193Z,100580.45
2018-06-11T09:12:56.224Z,100572.02
2018-06-11T09:15:24.232Z,100580.97
2018-06-11T09:17:52.313Z,100578.14
2018-06-11T09:20:20.314Z,100577.01
2018-06-11T09:22:48.356Z,100572.46
2018-06-11T09:25:16.360Z,100566.68
2018-06-11T09:27:44.353Z,100563.69
2018-06-11T09:30:12.398Z,100561.09
2018-06-11T09:32:40.598Z,100556.16
2018-06-11T09:35:08.628Z,100558.46
2018-06-11T09:37:36.670Z,100558.89
2018-06-11T09:40:05.067Z,100551.70
2018-06-11T09:42:33.072Z,100562.05
2018-06-11T09:45:01.073Z,100562.73
2018-06-11T09:47:29.069Z,100566.37
2018-06-11T09:49:57.073Z,100558.84
2018-06-11T09:52:25.093Z,100564.56
2018-06-11T09:54:53.125Z,100555.52
2018-06-11T09:57:21.145Z,100559.93
2018-06-11T09:59:49.150Z,100559.93
2018-06-11T10:02:17.161Z,100562.30
2018-06-11T10:04:45.185Z,100560.89
2018-06-11T10:07:13.225Z,100568.36
2018-06-11T10:09:41.305Z,100570.83
2018-06-11T10:12:09.399Z,100578.03
2018-06-11T10:14:37.401Z,100582.66
2018-06-11T10:17:05.442Z,100594.47
2018-06-11T10:19:33.450Z,100592.45
2018-06-11T10:22:01.463Z,100589.30
2018-06-11T10:24:29.496Z,100591.47
2018-06-11T10:26:57.572Z,100579.07
2018-06-11T10:29:25.622Z,100578.19
2018-06-11T10:31:53.608Z,100582.30
2018-06-11T10:34:21.646Z,100583.95
2018-06-11T10:36:49.664Z,100571.28
2018-06-11T10:39:17.696Z,100569.08
2018-06-11T10:41:45.708Z,100565.59
2018-06-11T10:44:13.744Z,100557.38
2018-06-11T10:46:41.753Z,100555.77
2018-06-11T10:49:09.813Z,100549.39
2018-06-11T10:51:37.791Z,100549.30
2018-06-11T10:54:06.069Z,100552.70
2018-06-11T10:56:34.209Z,100546.13
2018-06-11T10:59:02.234Z,100547.56
2018-06-11T11:01:30.260Z,100537.53
2018-06-11T11:03:58.277Z,100538.16
2018-06-11T11:06:26.287Z,100532.66
2018-06-11T11:08:54.340Z,100533.32
2018-06-11T11:11:22.344Z,100527.80
2018-06-11T11:13:50.369Z,100527.23
2018-06-11T11:16:18.420Z,100526.38
2018-06-11T11:18:46.445Z,100528.72
2018-06-11T11:21:14.604Z,100522.36
2018-06-11T11:23:42.641Z,100528.15
2018-06-11T11:26:10.637Z,100524.53
2018-06-11T11:28:38.666Z,100529.63
2018-06-11T11:31:06.678Z,100519.92
2018-06-11T11:33:34.758Z,100518.23
2018-06-11T11:36:02.765Z,100523.91
2018-06-11T11:38:30.832Z,100520.95
2018-06-11T11:40:58.848Z,100517.38
2018-06-11T11:43:26.846Z,100515.54
2018-06-11T11:45:54.870Z,100518.81
2018-06-11T11:48:22.883Z,100522.16
2018-06-11T11:50:50.928Z,100518.56
2018-06-11T11:53:19.078Z,100521.77
2018-06-11T11:55:47.098Z,100512.48
2018-06-11T11:58:15.083Z,100505.89
2018-06-11T12:00:43.077Z,100512.06
2018-06-11T12:03:11.112Z,100512.72
2018-06-11T12:05:39.079Z,100516.54
2018-06-11T12:08:07.084Z,100504.55
2018-06-11T12:10:35.118Z,100483.97
2018-06-11T12:13:03.176Z,100486.65
2018-06-11T12:15:31.226Z,100490.02
2018-06-11T12:17:59.245Z,100473.39
2018-06-11T12:20:27.243Z,100479.95
2018-06-11T12:22:55.304Z,100465.69
2018-06-11T12:25:23.441Z,100458.41
2018-06-11T12:27:51.448Z,100458.94
2018-06-11T12:30:19.473Z,100463.17
2018-06-11T12:32:47.495Z,100467.42
2018-06-11T12:35:15.497Z,100462.86
2018-06-11T12:37:43.582Z,100460.67
2018-06-11T12:40:11.607Z,100464.73
2018-06-11T12:42:39.579Z,100459.66
2018-06-11T12:45:07.581Z,100451.03
2018-06-11T12:47:35.842Z,100444.39
2018-06-11T12:50:03.825Z,100440.30
2018-06-11T12:52:31.796Z,100433.70
2018-06-11T12:54:59.814Z,100431.81
2018-06-11T12:57:29.610Z,100428.87
2018-06-11T12:59:57.652Z,100429.98
2018-06-11T13:02:25.724Z,100418.05
2018-06-11T13:04:53.756Z,100423.30
2018-06-11T13:07:21.800Z,100417.64
2018-06-11T13:09:49.832Z,100423.59
2018-06-11T13:12:17.924Z,100427.91
2018-06-11T13:14:45.977Z,100410.61
2018-06-11T13:17:14.000Z,100407.89
2018-06-11T13:19:42.060Z,100416.42
2018-06-11T13:22:10.107Z,100408.47
2018-06-11T13:24:39.135Z,100403.53
2018-06-11T13:27:07.128Z,100403.43
2018-06-11T13:29:35.179Z,100389.77
2018-06-11T13:32:03.189Z,100393.45
2018-06-11T13:34:31.199Z,100394.91
2018-06-11T13:36:59.349Z,100391.16
2018-06-11T13:39:27.416Z,100387.98
2018-06-11T13:41:55.467Z,100383.81
2018-06-11T13:44:23.480Z,100381.83
2018-06-11T13:46:51.493Z,100375.54
2018-06-11T13:49:19.501Z,100377.26
2018-06-11T13:51:47.530Z,100376.67
2018-06-11T13:54:15.535Z,100382.31
2018-06-11T13:56:44.733Z,100372.37
2018-06-11T13:59:12.786Z,100367.71
2018-06-11T14:01:40.832Z,100371.05
2018-06-11T14:04:08.846Z,100360.58
2018-06-11T14:06:36.896Z,100362.37
2018-06-11T14:09:07.368Z,100361.52
2018-06-11T14:11:35.502Z,100359.89
2018-06-11T14:14:04.278Z,100352.85
2018-06-11T14:16:32.288Z,100352.16
2018-06-11T14:19:00.320Z,100352.05
2018-06-11T14:21:28.349Z,100348.42
2018-06-11T14:23:56.404Z,100344.47
2018-06-11T14:26:24.432Z,100351.03
2018-06-11T14:28:52.402Z,100353.10
2018-06-11T14:31:20.498Z,100350.28
2018-06-11T14:33:48.477Z,100355.04
2018-06-11T14:36:16.641Z,100346.67
2018-06-11T14:38:44.690Z,100346.55
2018-06-11T14:41:12.760Z,100339.52
2018-06-11T14:43:40.701Z,100341.36
2018-06-11T14:46:08.708Z,100336.68
2018-06-11T14:48:36.741Z,100325.11
2018-06-11T14:51:04.822Z,100331.88
2018-06-11T14:53:32.838Z,100328.91
2018-06-11T14:56:00.989Z,100326.27
2018-06-11T14:58:29.017Z,100319.17
2018-06-11T15:00:57.041Z,100319.84
2018-06-11T15:03:25.055Z,100310.80
2018-06-11T15:05:53.140Z,100324.08
2018-06-11T15:08:21.333Z,100331.54
2018-06-11T15:10:49.484Z,100331.05
2018-06-11T15:13:17.577Z,100329.70
2018-06-11T15:15:45.619Z,100330.92
2018-06-11T15:18:13.605Z,100345.73
2018-06-11T15:20:41.729Z,100335.95
2018-06-11T15:23:09.737Z,100345.01
2018-06-11T15:25:37.821Z,100342.53
2018-06-11T15:28:05.888Z,100335.58
2018-06-11T15:30:33.952Z,100333.48
2018-06-11T15:33:01.957Z,100325.66
2018-06-11T15:35:29.963Z,100326.51
2018-06-11T15:37:57.982Z,100325.28
2018-06-11T15:40:26.025Z,100330.27
2018-06-11T15:42:54.029Z,100319.63
2018-06-11T15:45:22.024Z,100319.81
2018-06-11T15:47:50.140Z,100324.27
2018-06-11T15:50:18.197Z,100320.20
2018-06-11T15:52:46.257Z,100312.13
2018-06-11T15:55:14.236Z,100315.81
2018-06-11T15:57:42.349Z,100321.38
2018-06-11T16:00:10.585Z,100323.39
2018-06-11T16:02:38.681Z,100314.38
2018-06-11T16:05:06.697Z,100314.19
2018-06-11T16:07:34.717Z,100316.67
2018-06-11T16:10:02.736Z,100313.20
2018-06-11T16:12:30.765Z,100313.79
2018-06-11T16:14:58.840Z,100313.71
2018-06-11T16:17:26.884Z,100312.33
2018-06-11T16:19:54.973Z,100307.41
2018-06-11T16:22:23.031Z,100312.16
2018-06-11T16:24:51.004Z,100305.39
2018-06-11T16:27:19.021Z,100294.45
2018-06-11T16:29:47.038Z,100290.63
2018-06-11T16:32:15.050Z,100293.75
2018-06-11T16:34:43.124Z,100288.86
2018-06-11T16:37:11.157Z,100292.92
2018-06-11T16:39:39.332Z,100291.80
2018-06-11T16:42:07.354Z,100290.09
2018-06-11T16:44:35.344Z,100281.76
2018-06-11T16:47:03.408Z,100281.80
2018-06-11T16:49:31.453Z,100283.16
2018-06-11T16:51:59.513Z,100285.75
2018-06-11T16:54:27.520Z,100275.41
2018-06-11T16:56:55.540Z,100274.41
2018-06-11T16:59:23.580Z,100278.30
2018-06-11T17:01:51.596Z,100273.31
2018-06-11T17:04:19.605Z,100280.29
2018-06-11T17:06:47.678Z,100288.25
2018-06-11T17:09:15.716Z,100291.20
2018-06-11T17:11:43.760Z,100296.67
2018-06-11T17:14:11.888Z,100289.06
2018-06-11T17:16:39.948Z,100292.00
2018-06-11T17:19:07.960Z,100284.39
2018-06-11T17:21:36.011Z,100290.80
2018-06-11T17:24:04.031Z,100289.17
2018-06-11T17:26:32.025Z,100293.65
2018-06-11T17:29:00.050Z,100301.92
2018-06-11T17:31:28.056Z,100298.52
2018-06-11T17:33:56.057Z,100296.56
2018-06-11T17:36:24.092Z,100291.23
2018-06-11T17:38:52.140Z,100294.05
2018-06-11T17:41:20.172Z,100295.85
2018-06-11T17:43:48.188Z,100297.10
2018-06-11T17:46:16.193Z,100295.34
2018-06-11T17:48:44.222Z,100298.33
2018-06-11T17:51:12.267Z,100291.43
2018-06-11T17:53:40.264Z,100300.30
2018-06-11T17:56:08.313Z,100292.48
2018-06-11T17:58:36.390Z,100298.53
2018-06-11T18:01:04.359Z,100288.58
2018-06-11T18:03:32.449Z,100290.97
2018-06-11T18:06:00.490Z,100293.52
2018-06-11T18:08:28.588Z,100281.80
2018-06-11T18:10:56.618Z,100283.41
2018-06-11T18:13:24.627Z,100279.17
2018-06-11T18:18:19.955Z,100275.30
2018-06-11T18:20:48.034Z,100283.27
2018-06-11T18:23:16.070Z,100278.26
2018-06-11T18:25:44.084Z,100286.50
2018-06-11T18:28:12.152Z,100280.63
2018-06-11T18:30:40.245Z,100273.84
2018-06-11T18:33:08.296Z,100264.50
2018-06-11T18:35:36.357Z,100258.08
2018-06-11T18:38:04.392Z,100253.79
2018-06-11T18:40:32.884Z,100253.35
2018-06-11T18:43:01.980Z,100254.69
2018-06-11T18:45:30.064Z,100255.88
2018-06-11T18:47:59.556Z,100250.87
2018-06-11T18:50:28.070Z,100249.92
2018-06-11T18:52:56.138Z,100241.55
2018-06-11T18:55:24.207Z,100237.23
2018-06-11T18:57:52.441Z,100234.41
2018-06-11T19:00:20.465Z,100240.63
2018-06-11T19:02:48.469Z,100238.61
2018-06-11T19:05:16.553Z,100242.33
2018-06-11T19:07:44.612Z,100246.34
2018-06-11T19:10:12.709Z,100252.05
2018-06-11T19:12:40.778Z,100254.36
2018-06-11T19:15:08.859Z,100254.14
2018-06-11T19:17:36.861Z,100262.01
2018-06-11T19:20:04.941Z,100263.48
2018-06-11T19:22:32.982Z,100273.44
2018-06-11T19:25:01.089Z,100282.31
2018-06-11T19:27:29.103Z,100293.18
2018-06-11T19:29:57.096Z,100300.59
2018-06-11T19:32:25.120Z,100304.44
2018-06-11T19:34:53.168Z,100310.50
2018-06-11T19:37:21.231Z,100319.70
2018-06-11T19:39:49.317Z,100313.28
2018-06-11T19:42:17.376Z,100314.25
2018-06-11T19:44:45.785Z,100313.04
2018-06-11T19:47:13.800Z,100331.81
2018-06-11T19:49:41.809Z,100330.78
2018-06-11T19:52:09.897Z,100338.96
2018-06-11T19:54:38.940Z,100350.51
2018-06-11T19:57:07.077Z,100354.93
2018-06-11T19:59:35.211Z,100359.25
2018-06-11T20:02:03.429Z,100362.80
2018-06-11T20:04:31.484Z,100361.52
2018-06-11T20:06:59.581Z,100375.92
2018-06-11T20:09:27.660Z,100380.26
2018-06-11T20:11:55.674Z,100384.52
2018-06-11T20:14:23.818Z,100388.80
2018-06-11T20:16:51.835Z,100384.66
2018-06-11T20:19:19.998Z,100387.78
2018-06-11T20:21:47.955Z,100389.98
2018-06-11T20:24:16.046Z,100393.41
2018-06-11T20:26:44.037Z,100385.64
2018-06-11T20:29:12.038Z,100386.32
2018-06-11T20:31:40.034Z,100392.47
2018-06-11T20:34:08.048Z,100381.05
2018-06-11T20:36:36.051Z,100384.32
2018-06-11T20:39:06.050Z,100388.31
2018-06-11T20:41:34.085Z,100386.61
2018-06-11T20:44:02.072Z,100388.03
2018-06-11T20:46:30.195Z,100378.05
2018-06-11T20:48:58.250Z,100377.75
2018-06-11T20:51:26.302Z,100379.67
2018-06-11T20:53:54.308Z,100379.04
2018-06-11T20:56:22.342Z,100374.75
2018-06-11T20:58:50.400Z,100367.50
2018-06-11T21:01:19.515Z,100368.45
2018-06-11T21:03:47.516Z,100364.28
2018-06-11T21:06:15.556Z,100363.38
2018-06-11T21:08:43.624Z,100363.78
2018-06-11T21:11:11.636Z,100365.03
2018-06-11T21:13:39.681Z,100364.52
2018-06-11T21:16:07.697Z,100363.09
2018-06-11T21:18:35.686Z,100366.88
2018-06-11T21:21:03.751Z,100365.73
2018-06-11T21:23:31.785Z,100367.98
2018-06-11T21:25:59.776Z,100366.50
2018-06-11T21:28:27.780Z,100363.80
2018-06-11T21:30:55.777Z,100364.61
2018-06-11T21:33:23.800Z,100365.69
2018-06-11T21:35:51.810Z,100367.27
2018-06-11T21:38:19.957Z,100360.30
2018-06-11T21:40:47.994Z,100359.78
2018-06-11T21:43:16.005Z,100361.70
2018-06-11T21:45:44.295Z,100360.70
2018-06-11T21:48:12.331Z,100361.02
2018-06-11T21:50:40.405Z,100360.30
2018-06-11T21:53:08.408Z,100362.06
2018-06-11T21:55:36.442Z,100368.98
2018-06-11T21:58:04.446Z,100370.13
2018-06-11T22:00:32.429Z,100371.45
2018-06-11T22:03:00.416Z,100369.91
2018-06-11T22:05:28.470Z,100371.67
2018-06-11T22:07:56.515Z,100373.53
2018-06-11T22:10:24.486Z,100382.53
2018-06-11T22:12:52.803Z,100379.21
2018-06-11T22:15:20.848Z,100390.06
2018-06-11T22:17:48.860Z,100381.95
2018-06-11T22:20:16.873Z,100382.08
2018-06-11T22:22:44.896Z,100383.84
2018-06-11T22:25:12.923Z,100383.66
2018-06-11T22:27:41.133Z,100386.72
2018-06-11T22:30:09.127Z,100386.94
2018-06-11T22:32:37.124Z,100390.50
2018-06-11T22:35:05.153Z,100383.04
2018-06-11T22:37:33.144Z,100385.52
2018-06-11T22:40:01.157Z,100386.41
2018-06-11T22:42:29.145Z,100377.09
2018-06-11T22:44:57.116Z,100375.41
2018-06-11T22:47:25.101Z,100380.02
2018-06-11T22:49:53.144Z,100371.65
2018-06-11T22:52:21.180Z,100376.37
2018-06-11T22:54:49.208Z,100360.09
2018-06-11T22:57:17.203Z,100367.01
2018-06-11T22:59:45.232Z,100367.78
2018-06-11T23:02:13.201Z,100371.05
2018-06-11T23:04:41.193Z,100366.55
2018-06-11T23:07:09.204Z,100356.39
2018-06-11T23:09:37.316Z,100354.63
2018-06-11T23:12:05.328Z,100353.67
2018-06-11T23:17:07.724Z,100350.63
2018-06-11T23:19:35.773Z,100346.89
2018-06-11T23:22:03.845Z,100349.65
2018-06-11T23:24:31.860Z,100345.22
2018-06-11T23:26:59.873Z,100343.80
2018-06-11T23:29:27.857Z,100339.48
2018-06-11T23:31:55.860Z,100339.20
2018-06-11T23:34:23.840Z,100342.20
2018-06-11T23:36:51.844Z,100340.88
2018-06-11T23:39:19.821Z,100331.17
2018-06-11T23:41:47.814Z,100329.31
2018-06-11T23:44:15.792Z,100328.30
2018-06-11T23:46:43.777Z,100319.05
2018-06-11T23:49:12.599Z,100318.71
2018-06-11T23:51:40.576Z,100327.28
2018-06-11T23:54:08.581Z,100328.05
2018-06-11T23:56:36.601Z,100323.12
2018-06-11T23:59:04.637Z,100326.77
